createdAt,value
2022-12-06T00:01:46.656Z,5.10
2022-12-06T00:04:31.829Z,5.40
2022-12-06T00:07:17.262Z,5.83
2022-12-06T00:10:02.523Z,5.77
2022-12-06T00:12:47.801Z,5.13
2022-12-06T00:15:35.914Z,5.10
2022-12-06T00:18:21.415Z,5.70
2022-12-06T00:21:10.661Z,5.63
2022-12-06T00:23:59.700Z,5.37
2022-12-06T00:26:47.262Z,5.50
2022-12-06T00:29:32.939Z,4.87
2022-12-06T00:32:19.790Z,4.83
2022-12-06T00:35:06.368Z,5.10
2022-12-06T00:37:51.552Z,5.03
2022-12-06T00:40:37.064Z,5.30
2022-12-06T00:43:22.320Z,5.10
2022-12-06T00:46:11.010Z,5.40
2022-12-06T00:48:58.039Z,4.93
2022-12-06T00:51:43.388Z,5.00
2022-12-06T00:54:28.646Z,5.10
2022-12-06T00:57:14.133Z,4.70
2022-12-06T00:59:59.655Z,4.87
2022-12-06T01:02:45.231Z,5.27
2022-12-06T01:05:30.689Z,4.47
2022-12-06T01:08:17.604Z,4.30
2022-12-06T01:11:04.036Z,5.40
2022-12-06T01:13:50.994Z,4.27
2022-12-06T01:16:36.624Z,4.83
2022-12-06T01:19:21.811Z,5.00
2022-12-06T01:22:07.001Z,4.63
2022-12-06T01:24:52.496Z,4.47
2022-12-06T01:27:37.898Z,5.07
2022-12-06T01:30:23.128Z,4.17
2022-12-06T01:33:08.355Z,4.47
2022-12-06T01:35:53.687Z,4.50
2022-12-06T01:38:39.195Z,4.73
2022-12-06T01:41:27.171Z,4.17
2022-12-06T01:44:49.130Z,4.47
2022-12-06T01:47:41.652Z,3.67
2022-12-06T01:50:32.840Z,4.10
2022-12-06T01:53:25.294Z,4.33
2022-12-06T01:56:11.503Z,4.15
2022-12-06T01:58:58.819Z,4.50
2022-12-06T02:01:45.887Z,4.27
2022-12-06T02:04:32.009Z,4.60
2022-12-06T02:07:19.058Z,4.40
2022-12-06T02:10:05.469Z,3.87
2022-12-06T02:12:55.421Z,4.17
2022-12-06T02:15:57.428Z,3.97
2022-12-06T02:18:53.657Z,3.70
2022-12-06T02:22:07.788Z,3.80
2022-12-06T02:25:34.063Z,4.00
2022-12-06T02:28:54.836Z,3.30
2022-12-06T02:31:47.118Z,3.70
2022-12-06T02:35:11.460Z,4.00
2022-12-06T02:38:07.734Z,3.90
2022-12-06T02:41:04.387Z,3.87
2022-12-06T02:43:56.850Z,3.67
2022-12-06T02:46:43.826Z,3.60
2022-12-06T02:49:32.119Z,4.00
2022-12-06T02:52:19.942Z,3.80
2022-12-06T02:55:08.107Z,3.83
2022-12-06T02:57:54.750Z,3.40
2022-12-06T03:00:43.511Z,4.30
2022-12-06T03:04:05.932Z,3.50
2022-12-06T03:07:07.679Z,3.87
2022-12-06T03:09:59.330Z,3.30
2022-12-06T03:13:09.751Z,3.67
2022-12-06T03:16:07.627Z,3.27
2022-12-06T03:19:05.084Z,3.63
2022-12-06T03:22:09.012Z,3.57
2022-12-06T03:24:55.459Z,3.60
2022-12-06T03:27:42.685Z,3.80
2022-12-06T03:30:31.384Z,3.83
2022-12-06T03:33:19.135Z,3.40
2022-12-06T03:36:06.312Z,3.87
2022-12-06T03:38:57.758Z,3.27
2022-12-06T03:41:58.821Z,3.77
2022-12-06T03:44:44.607Z,3.50
2022-12-06T03:47:55.173Z,3.90
2022-12-06T03:50:58.194Z,3.87
2022-12-06T03:53:49.546Z,3.47
2022-12-06T03:56:37.183Z,3.73
2022-12-06T03:59:22.386Z,3.73
2022-12-06T04:02:07.660Z,3.63
2022-12-06T04:04:52.847Z,3.80
2022-12-06T04:07:38.315Z,4.30
2022-12-06T04:10:24.329Z,3.90
2022-12-06T04:13:09.828Z,4.00
2022-12-06T04:15:57.222Z,4.13
2022-12-06T04:18:42.717Z,3.37
2022-12-06T04:21:33.765Z,3.97
2022-12-06T04:24:19.340Z,3.97
2022-12-06T04:27:23.145Z,4.10
2022-12-06T04:30:27.968Z,3.85
2022-12-06T04:33:32.079Z,3.67
2022-12-06T04:36:35.996Z,3.77
2022-12-06T04:39:21.469Z,3.97
2022-12-06T04:42:25.810Z,3.80
2022-12-06T04:45:11.414Z,3.80
2022-12-06T04:47:57.092Z,3.83
2022-12-06T04:50:48.078Z,4.00
2022-12-06T04:53:33.756Z,3.37
2022-12-06T04:56:19.339Z,3.70
2022-12-06T04:59:04.703Z,3.40
2022-12-06T05:01:50.119Z,3.57
2022-12-06T05:04:35.680Z,4.00
2022-12-06T05:07:21.394Z,3.67
2022-12-06T05:10:07.339Z,3.43
2022-12-06T05:12:52.826Z,4.07
2022-12-06T05:15:38.033Z,3.50
2022-12-06T05:18:24.281Z,3.10
2022-12-06T05:21:21.235Z,3.40
2022-12-06T05:24:08.028Z,3.23
2022-12-06T05:26:53.663Z,3.30
2022-12-06T05:29:39.273Z,2.80
2022-12-06T05:32:25.100Z,2.90
2022-12-06T05:35:10.700Z,2.83
2022-12-06T05:37:56.746Z,2.87
2022-12-06T05:40:44.144Z,3.00
2022-12-06T05:43:30.044Z,2.57
2022-12-06T05:46:15.970Z,3.10
2022-12-06T05:49:01.296Z,2.97
2022-12-06T05:51:47.817Z,3.53
2022-12-06T05:54:33.554Z,3.43
2022-12-06T05:57:18.828Z,3.40
2022-12-06T06:00:05.185Z,3.40
2022-12-06T06:02:52.025Z,2.97
2022-12-06T06:05:37.313Z,3.07
2022-12-06T06:08:22.757Z,3.13
2022-12-06T06:11:07.922Z,3.40
2022-12-06T06:13:54.530Z,3.07
2022-12-06T06:16:40.271Z,3.20
2022-12-06T06:19:25.512Z,3.07
2022-12-06T06:22:11.009Z,3.47
2022-12-06T06:24:56.354Z,3.87
2022-12-06T06:27:41.773Z,3.63
2022-12-06T06:30:27.030Z,3.37
2022-12-06T06:33:13.032Z,3.70
2022-12-06T06:35:58.408Z,3.20
2022-12-06T06:38:43.687Z,3.40
2022-12-06T06:41:29.017Z,3.23
2022-12-06T06:44:14.440Z,3.57
2022-12-06T06:47:00.052Z,3.50
2022-12-06T06:49:45.400Z,3.43
2022-12-06T06:52:30.643Z,3.90
2022-12-06T06:55:16.077Z,3.80
2022-12-06T06:58:01.312Z,3.80
2022-12-06T07:00:46.702Z,3.50
2022-12-06T07:03:33.014Z,3.77
2022-12-06T07:06:18.729Z,3.40
2022-12-06T07:09:04.379Z,3.50
2022-12-06T07:11:49.823Z,3.67
2022-12-06T07:14:35.427Z,3.83
2022-12-06T07:17:20.606Z,3.33
2022-12-06T07:20:06.733Z,3.20
2022-12-06T07:22:52.430Z,3.33
2022-12-06T07:25:39.033Z,3.40
2022-12-06T07:28:24.536Z,3.80
2022-12-06T07:31:12.841Z,3.50
2022-12-06T07:34:00.310Z,3.40
2022-12-06T07:36:45.770Z,3.50
2022-12-06T07:39:31.160Z,3.03
2022-12-06T07:42:35.109Z,3.27
2022-12-06T07:45:20.384Z,3.10
2022-12-06T07:48:05.977Z,3.00
2022-12-06T07:50:52.460Z,2.97
2022-12-06T07:53:38.108Z,3.23
2022-12-06T07:56:23.394Z,2.77
2022-12-06T07:59:08.883Z,2.97
2022-12-06T08:01:54.803Z,3.50
2022-12-06T08:04:40.471Z,2.87
2022-12-06T08:07:26.492Z,2.83
2022-12-06T08:10:11.776Z,3.20
2022-12-06T08:12:57.162Z,3.10
2022-12-06T08:15:42.479Z,2.90
2022-12-06T08:18:27.679Z,3.50
2022-12-06T08:21:13.405Z,3.20
2022-12-06T08:23:59.037Z,3.03
2022-12-06T08:26:44.803Z,2.73
2022-12-06T08:29:30.467Z,3.30
2022-12-06T08:32:15.755Z,3.07
2022-12-06T08:35:01.198Z,2.83
2022-12-06T08:37:46.516Z,2.90
2022-12-06T08:40:32.177Z,3.10
2022-12-06T08:43:17.866Z,2.80
2022-12-06T08:46:03.389Z,3.10
2022-12-06T08:48:48.708Z,2.93
2022-12-06T08:51:35.219Z,3.10
2022-12-06T08:54:24.089Z,3.23
2022-12-06T08:57:09.837Z,3.17
2022-12-06T08:59:55.626Z,2.77
2022-12-06T09:02:41.747Z,2.53
2022-12-06T09:05:27.318Z,3.20
2022-12-06T09:08:12.649Z,2.80
2022-12-06T09:10:57.884Z,3.17
2022-12-06T09:13:43.669Z,2.60
2022-12-06T09:16:30.045Z,2.80
2022-12-06T09:19:15.976Z,2.60
2022-12-06T09:22:01.473Z,3.10
2022-12-06T09:24:47.047Z,2.80
2022-12-06T09:27:33.070Z,2.50
2022-12-06T09:30:18.709Z,2.60
2022-12-06T09:33:04.114Z,2.87
2022-12-06T09:35:51.480Z,2.73
2022-12-06T09:38:39.182Z,2.30
2022-12-06T09:41:43.452Z,2.60
2022-12-06T09:44:44.161Z,2.40
2022-12-06T09:48:02.086Z,2.47
2022-12-06T09:51:02.664Z,2.90
2022-12-06T09:54:00.273Z,2.40
2022-12-06T09:56:57.525Z,2.30
2022-12-06T09:59:56.466Z,2.20
2022-12-06T10:03:00.421Z,2.57
2022-12-06T10:06:02.691Z,2.50
2022-12-06T10:09:03.872Z,2.40
2022-12-06T10:11:59.292Z,2.30
2022-12-06T10:15:03.862Z,2.70
2022-12-06T10:18:24.493Z,2.20
2022-12-06T10:21:23.450Z,2.50
2022-12-06T10:24:44.692Z,2.13
2022-12-06T10:27:38.134Z,2.40
2022-12-06T10:30:23.747Z,2.28
2022-12-06T10:33:52.268Z,2.50
2022-12-06T10:36:40.557Z,2.50
2022-12-06T10:39:41.143Z,2.47
2022-12-06T10:42:44.572Z,2.40
2022-12-06T10:48:46.169Z,2.25
2022-12-06T10:52:05.153Z,2.00
2022-12-06T10:54:53.397Z,2.30
2022-12-06T10:58:17.649Z,2.23
2022-12-06T11:01:09.811Z,2.37
2022-12-06T11:04:13.636Z,2.23
2022-12-06T11:07:06.279Z,2.28
2022-12-06T11:09:54.721Z,1.98
2022-12-06T11:12:40.331Z,2.17
2022-12-06T11:15:29.853Z,2.10
2022-12-06T11:18:17.589Z,2.37
2022-12-06T11:21:45.034Z,2.50
2022-12-06T11:24:44.631Z,2.03
2022-12-06T11:27:39.824Z,2.13
2022-12-06T11:30:25.228Z,1.93
2022-12-06T11:33:11.079Z,2.03
2022-12-06T11:35:56.558Z,2.30
2022-12-06T11:38:44.929Z,2.00
2022-12-06T11:41:36.081Z,2.07
2022-12-06T11:44:26.075Z,2.20
2022-12-06T11:47:16.261Z,2.27
2022-12-06T11:50:08.480Z,1.80
2022-12-06T11:52:54.561Z,2.22
2022-12-06T11:55:46.708Z,2.20
2022-12-06T11:59:07.484Z,2.10
2022-12-06T12:01:56.476Z,1.93
2022-12-06T12:04:44.004Z,1.90
2022-12-06T12:07:29.994Z,2.00
2022-12-06T12:10:30.595Z,1.90
2022-12-06T12:13:40.072Z,1.90
2022-12-06T12:16:31.733Z,1.90
2022-12-06T12:19:36.432Z,1.97
2022-12-06T12:22:27.691Z,2.07
2022-12-06T12:25:31.159Z,2.07
2022-12-06T12:28:29.360Z,2.15
2022-12-06T12:31:26.661Z,1.87
2022-12-06T12:34:20.778Z,1.90
2022-12-06T12:37:21.170Z,2.23
2022-12-06T12:40:25.526Z,1.87
2022-12-06T12:43:10.823Z,1.90
2022-12-06T12:46:04.804Z,1.70
2022-12-06T12:48:51.694Z,1.97
2022-12-06T12:51:39.195Z,1.80
2022-12-06T12:54:29.127Z,2.00
2022-12-06T12:57:14.651Z,2.00
2022-12-06T13:00:00.212Z,1.90
2022-12-06T13:02:57.351Z,2.33
2022-12-06T13:05:47.233Z,1.90
2022-12-06T13:08:36.097Z,2.00
2022-12-06T15:20:15.329Z,2.50
2022-12-06T15:23:00.843Z,2.30
2022-12-06T15:25:46.135Z,2.03
2022-12-06T15:28:31.652Z,2.47
2022-12-06T15:31:21.858Z,2.33
2022-12-06T15:34:32.214Z,2.30
2022-12-06T15:40:23.148Z,2.90
2022-12-06T15:43:29.169Z,2.07
2022-12-06T15:46:23.798Z,2.47
2022-12-06T15:49:13.737Z,2.57
2022-12-06T15:51:59.350Z,2.10
2022-12-06T15:54:45.081Z,2.43
2022-12-06T15:57:30.331Z,2.43
2022-12-06T16:00:15.731Z,2.90
2022-12-06T16:03:01.137Z,2.33
2022-12-06T16:05:46.919Z,2.50
2022-12-06T16:08:32.347Z,2.83
2022-12-06T16:11:21.335Z,2.70
2022-12-06T16:14:07.404Z,3.03
2022-12-06T16:16:53.579Z,2.80
2022-12-06T16:19:57.482Z,2.60
2022-12-06T16:23:01.463Z,3.03
2022-12-06T16:25:47.501Z,3.23
2022-12-06T16:28:32.808Z,3.03
2022-12-06T16:31:18.402Z,3.47
2022-12-06T16:34:08.845Z,3.40
2022-12-06T16:36:59.333Z,3.80
2022-12-06T16:39:44.797Z,3.50
2022-12-06T16:42:30.243Z,3.70
2022-12-06T16:45:15.868Z,3.57
2022-12-06T16:48:01.414Z,3.60
2022-12-06T16:50:47.429Z,4.07
2022-12-06T16:53:32.994Z,3.87
2022-12-06T16:56:18.522Z,3.70
2022-12-06T16:59:05.041Z,3.73
2022-12-06T17:01:55.583Z,3.40
2022-12-06T17:04:43.053Z,4.07
2022-12-06T17:07:28.933Z,3.30
2022-12-06T17:10:15.975Z,3.27
2022-12-06T17:13:02.111Z,3.13
2022-12-06T17:15:47.463Z,3.23
2022-12-06T17:18:32.639Z,3.70
2022-12-06T17:21:17.994Z,3.10
2022-12-06T17:24:03.507Z,2.87
2022-12-06T17:26:49.474Z,3.33
2022-12-06T17:29:35.457Z,2.77
2022-12-06T17:32:21.088Z,3.00
2022-12-06T17:35:07.159Z,3.13
2022-12-06T17:37:52.370Z,3.03
2022-12-06T17:40:38.314Z,2.97
2022-12-06T17:43:23.802Z,4.10
2022-12-06T17:46:09.164Z,5.70
2022-12-06T17:48:56.595Z,6.37
2022-12-06T17:51:41.931Z,7.23
2022-12-06T17:54:27.385Z,7.93
2022-12-06T17:57:17.732Z,8.37
2022-12-06T18:00:04.780Z,9.37
2022-12-06T18:02:53.124Z,10.13
2022-12-06T18:05:41.586Z,11.03
2022-12-06T18:08:27.085Z,11.13
2022-12-06T18:11:12.853Z,11.33
2022-12-06T18:13:59.511Z,13.97
2022-12-06T18:16:47.095Z,13.23
2022-12-06T18:19:34.006Z,12.93
2022-12-06T18:22:21.346Z,13.33
2022-12-06T18:25:07.189Z,13.27
2022-12-06T18:27:52.684Z,13.17
2022-12-06T18:30:37.999Z,12.37
2022-12-06T18:33:27.961Z,12.30
2022-12-06T18:36:16.642Z,11.98
2022-12-06T18:39:07.368Z,11.37
2022-12-06T18:41:55.311Z,11.10
2022-12-06T18:44:40.603Z,11.63
2022-12-06T18:47:26.591Z,10.23
2022-12-06T18:50:12.153Z,10.43
2022-12-06T18:52:57.625Z,10.67
2022-12-06T18:55:43.124Z,9.80
2022-12-06T18:58:28.460Z,10.10
2022-12-06T19:01:20.709Z,9.43
2022-12-06T19:04:08.091Z,10.23
2022-12-06T19:06:54.426Z,8.90
2022-12-06T19:09:39.767Z,8.93
2022-12-06T19:12:24.944Z,8.90
2022-12-06T19:15:11.480Z,8.73
2022-12-06T19:17:57.177Z,9.07
2022-12-06T19:20:42.540Z,9.47
2022-12-06T19:23:30.287Z,8.87
2022-12-06T19:26:15.736Z,8.90
2022-12-06T19:29:01.841Z,8.27
2022-12-06T19:31:47.789Z,8.63
2022-12-06T19:34:33.110Z,8.17
2022-12-06T19:37:18.465Z,8.73
2022-12-06T19:40:04.448Z,8.63
2022-12-06T19:43:08.569Z,7.63
2022-12-06T19:45:54.169Z,7.87
2022-12-06T19:48:40.158Z,7.73
2022-12-06T19:51:28.857Z,8.37
2022-12-06T19:54:16.987Z,8.00
2022-12-06T19:57:02.377Z,7.33
2022-12-06T19:59:47.797Z,7.67
2022-12-06T20:02:33.449Z,7.47
2022-12-06T20:05:19.113Z,6.67
2022-12-06T20:08:04.306Z,7.40
2022-12-06T20:10:49.572Z,6.60
2022-12-06T20:13:34.894Z,7.10
2022-12-06T20:16:20.270Z,6.90
2022-12-06T20:19:07.186Z,6.83
2022-12-06T20:21:52.688Z,7.43
2022-12-06T20:24:38.349Z,6.43
2022-12-06T20:27:43.831Z,6.27
2022-12-06T20:30:31.401Z,7.10
2022-12-06T20:34:15.083Z,6.37
2022-12-06T20:37:04.815Z,5.87
2022-12-06T20:39:50.057Z,6.40
2022-12-06T20:42:35.701Z,5.90
2022-12-06T20:45:21.178Z,5.90
2022-12-06T20:48:07.144Z,6.17
2022-12-06T20:50:52.892Z,5.93
2022-12-06T20:53:38.791Z,5.57
2022-12-06T20:56:27.719Z,5.97
2022-12-06T20:59:13.409Z,5.80
2022-12-06T21:01:58.704Z,5.57
2022-12-06T21:04:44.463Z,6.27
2022-12-06T21:07:29.653Z,5.80
2022-12-06T21:10:15.044Z,5.57
2022-12-06T21:13:05.827Z,5.40
2022-12-06T21:16:03.008Z,5.20
2022-12-06T21:18:54.757Z,5.37
2022-12-06T21:21:43.472Z,5.37
2022-12-06T21:24:29.045Z,4.83
2022-12-06T21:27:14.313Z,4.97
2022-12-06T21:29:59.808Z,4.50
2022-12-06T21:35:23.766Z,5.00
2022-12-06T21:38:08.546Z,4.40
2022-12-06T21:40:55.490Z,5.10
2022-12-06T21:43:43.895Z,4.77
2022-12-06T21:46:29.288Z,4.90
2022-12-06T21:49:14.867Z,5.13
2022-12-06T21:52:03.315Z,4.73
2022-12-06T21:54:52.714Z,4.50
2022-12-06T21:57:38.092Z,4.77
2022-12-06T22:00:23.951Z,4.83
2022-12-06T22:03:09.766Z,4.63
2022-12-06T22:05:55.006Z,5.03
2022-12-06T22:08:42.234Z,4.77
2022-12-06T22:11:28.578Z,4.33
2022-12-06T22:14:13.938Z,4.67
2022-12-06T22:16:59.107Z,5.07
2022-12-06T22:19:44.272Z,4.37
2022-12-06T22:22:29.387Z,4.30
2022-12-06T22:25:19.314Z,4.83
2022-12-06T22:28:04.683Z,4.50
2022-12-06T22:30:49.868Z,4.30
2022-12-06T22:33:35.031Z,4.53
2022-12-06T22:36:21.492Z,4.20
2022-12-06T22:39:07.181Z,4.50
2022-12-06T22:41:54.379Z,4.13
2022-12-06T22:44:39.886Z,4.13
2022-12-06T22:47:25.173Z,3.93
2022-12-06T22:50:10.841Z,3.93
2022-12-06T22:52:56.054Z,4.20
2022-12-06T22:55:41.515Z,3.60
2022-12-06T22:58:26.792Z,3.83
2022-12-06T23:01:18.027Z,3.73
2022-12-06T23:04:06.312Z,3.73
2022-12-06T23:06:51.456Z,3.80
2022-12-06T23:09:36.866Z,3.90
2022-12-06T23:12:22.406Z,3.93
2022-12-06T23:15:08.245Z,3.30
2022-12-06T23:17:53.408Z,3.37
2022-12-06T23:20:38.800Z,4.10
2022-12-06T23:23:24.036Z,4.00
2022-12-06T23:26:12.783Z,3.67
2022-12-06T23:28:58.289Z,3.07
2022-12-06T23:31:45.401Z,4.00
2022-12-06T23:34:30.861Z,3.23
2022-12-06T23:37:16.113Z,3.77
2022-12-06T23:40:01.564Z,4.00
2022-12-06T23:42:47.073Z,3.43
2022-12-06T23:45:32.404Z,3.50
2022-12-06T23:48:17.702Z,3.40
2022-12-06T23:51:06.505Z,3.50
2022-12-06T23:53:54.098Z,3.90
2022-12-06T23:56:41.611Z,3.57
2022-12-06T23:59:26.941Z,3.30
